• Join FlightAware (Why Join?)
  • Login
  • US Flag 
Rudolph Flight #1: Arrived! 
05:40PM EST


 

Airport Tracker/Info


-or-


 

Live Flight TrackerFlight Track Log ✈ UPS37 ✈ 28-Apr-2013 ✈ YSSY / SYD - ZGSZ / SZX

Flight Track Log - Related Links

Times and Time Zones

All times are in EDT time to prevent confusion due to time zone crossing. See the UPS37 flight status page for this flight to view local times or setup timezone preferences in your user account.

Time Position Orientation Groundspeed Altitude Reporting Facility
EDT Latitude Longitude Course Direction KTS MPH feet Rate Location/Type
06:03AM -33.9037 151.1297 130° Southeast 12,900  Level Aus ATC (Calculated)
06:03AM -33.9340 151.1730 348° North 164 189 300 -19,740 Descending FlightAware
06:04AM -33.9100 151.1680 350° North 178 205 1,400 2,280 Climbing FlightAware
06:04AM -33.8910 151.1580 336° Northwest 174 200 2,400 2,220 Climbing FlightAware
06:05AM -33.8830 151.1480 314° West 173 199 2,900 1,860 Climbing FlightAware
06:05AM -33.8645 151.1223 314° West 190 219 3,700 1,200 Climbing Aus ATC (RADAR)
06:05AM -33.8650 151.1230 314° West 214 246 3,500 600 Descending FlightAware
06:05AM -33.8550 151.1080 309° West 236 272 3,900 1,620 Climbing FlightAware
06:06AM -33.8390 151.0840 309° West 254 292 4,600 2,280 Climbing FlightAware
06:06AM -33.8140 151.0510 312° West 271 312 6,000 2,640 Climbing FlightAware
06:06AM -33.8010 151.0340 313° West 279 321 6,600 3,480 Climbing FlightAware
06:07AM -33.7748 151.0019 313° West 270 311 8,100 3,120 Climbing Aus ATC (RADAR)
06:07AM -33.7750 151.0030 313° West 281 323 7,900 2,280 Descending FlightAware
06:07AM -33.7470 150.9680 314° West 284 327 9,400 2,520 Climbing FlightAware
06:08AM -33.7100 150.9210 313° West 310 357 10,900 2,340 Climbing FlightAware
06:08AM -33.6886 150.8939 313° West 303 349 11,600 1,800 Climbing Aus ATC (RADAR)
06:09AM -33.6670 150.8670 313° West 337 388 12,100 1,380 Climbing FlightAware
06:09AM -33.6160 150.8030 314° West 383 441 13,200 1,560 Climbing FlightAware
06:10AM -33.5580 150.7640 314° West 389 448 14,100 1,500 Climbing Aus ATC (RADAR)
06:10AM -33.5490 150.7620 314° West 412 474 14,200 1,620 Climbing FlightAware
06:11AM -33.4610 150.7360 346° North 430 495 15,600 1,920 Climbing FlightAware
06:12AM -33.3820 150.7130 346° North 450 518 17,000 2,520 Climbing FlightAware
06:12AM -33.3406 150.7002 346° North 434 499 18,000 2,220 Climbing Aus ATC (RADAR)
06:12AM -33.2990 150.6880 346° North 448 516 18,500 1,680 Climbing FlightAware
06:13AM -33.2080 150.6610 346° North 464 534 20,000 2,160 Climbing FlightAware
06:13AM -33.1593 150.6459 346° North 464 534 20,800 1,620 Climbing Aus ATC (RADAR)
06:14AM -33.1210 150.6350 346° North 476 548 21,100 1,320 Climbing FlightAware
06:14AM -33.0240 150.6060 346° North 477 549 22,300 1,800 Climbing FlightAware
06:15AM -32.9697 150.5903 346° North 475 547 23,100 1,620 Climbing Aus ATC (RADAR)
06:15AM -32.9350 150.5800 346° North 493 567 23,400 1,500 Climbing FlightAware
06:16AM -32.8641 150.5595 346° North 497 572 24,300 1,500 Climbing Aus ATC (RADAR)
06:16AM -32.8460 150.5540 346° North 500 575 24,400 1,680 Climbing FlightAware
06:16AM -32.7904 150.5373 346° North 490 564 25,200 1,860 Climbing Aus ATC (RADAR)
06:16AM -32.7450 150.5240 346° North 499 574 25,800 1,800 Climbing FlightAware
06:17AM -32.6550 150.4980 346° North 496 571 27,200 2,220 Climbing FlightAware
06:18AM -32.5781 150.4745 346° North 484 557 28,400 1,980 Climbing Aus ATC (RADAR)
06:18AM -32.5550 150.4680 346° North 482 555 28,700 1,980 Climbing FlightAware
06:18AM -32.4743 150.4446 346° North 488 562 30,000 1,800 Climbing Aus ATC (RADAR)
06:19AM -32.4670 150.4420 346° North 479 551 29,900 1,380 Descending FlightAware
06:19AM -32.3800 150.4170 346° North 483 556 31,100 1,440 Climbing FlightAware
06:20AM -32.2830 150.3890 346° North 477 549 32,000 900 Climbing FlightAware
06:21AM -32.1961 150.3639 346° North 475 547 32,300  Climbing Aus ATC (RADAR)
06:21AM -32.1950 150.3630 346° North 482 555 32,000 -420 Descending FlightAware
06:21AM -32.1100 150.3390 347° North 480 552 32,000  Level FlightAware
06:22AM -32.0110 150.3100 346° North 481 554 32,000 180 Level FlightAware
06:22AM -31.9640 150.2966 346° North 482 555 32,200  Climbing Aus ATC (RADAR)
06:23AM -31.9260 150.2860 346° North 483 556 32,000 -240 Descending FlightAware
06:23AM -31.8680 150.2700 347° North 483 556 32,000 180 Level FlightAware
06:24AM -31.7740 150.2417 347° North 473 544 32,200 180 Climbing Aus ATC (RADAR)
06:24AM -31.7040 150.2220 347° North 482 555 32,200 -360 Level Aus ATC (RADAR)
06:24AM -31.7280 150.2280 347° North 481 554 32,000 -300 Descending FlightAware
06:25AM -31.6230 150.1990 347° North 479 551 32,000 180 Level FlightAware
06:25AM -31.5582 150.1801 347° North 473 544 32,200  Climbing Aus ATC (RADAR)
06:26AM -31.5240 150.1700 347° North 479 551 32,000  Descending FlightAware
06:26AM -31.4825 150.1584 347° North 474 545 32,200  Climbing Aus ATC (RADAR)
06:26AM -31.4380 150.1460 347° North 480 552 32,000  Descending FlightAware
06:27AM -31.3639 150.1245 347° North 473 544 32,200  Climbing Aus ATC (RADAR)
06:27AM -31.3500 150.1210 347° North 480 552 32,000  Descending FlightAware
06:28AM -31.2606 150.0952 347° North 482 555 32,200  Climbing Aus ATC (RADAR)
06:28AM -31.2290 150.0870 347° North 481 554 32,000 60 Descending FlightAware
06:29AM -31.1361 150.0601 347° North 476 548 32,300 120 Climbing Aus ATC (RADAR)
06:29AM -31.1510 150.0640 347° North 481 554 32,100  Descending FlightAware
06:29AM -31.0601 150.0389 347° North 476 548 32,300  Climbing Aus ATC (RADAR)
06:29AM -31.0780 150.0430 347° North 481 554 32,100 -240 Descending FlightAware
06:30AM -30.9860 150.0160 346° North 481 554 32,100 120 Level FlightAware
06:31AM -30.8872 149.9895 346° North 474 545 32,300 -120 Climbing Aus ATC (RADAR)
06:31AM -30.8360 149.9760 346° North 478 550 32,000 -240 Descending FlightAware
06:32AM -30.7200 149.9430 346° North 467 537 32,000 120 Level FlightAware
06:33AM -30.6204 149.9151 346° North 467 537 32,200  Climbing Aus ATC (RADAR)
06:33AM -30.6360 149.9190 346° North 463 533 32,000 -300 Descending FlightAware
06:33AM -30.5510 149.8950 346° North 463 533 32,000  Level FlightAware
06:34AM -30.4980 149.8790 345° North 463 533 32,000  Level FlightAware
06:35AM -30.4280 149.8590 346° North 463 533 32,000 180 Level FlightAware
06:35AM -30.3417 149.8365 346° North 467 537 32,200  Climbing Aus ATC (RADAR)
06:35AM -30.3570 149.8390 346° North 463 533 32,000  Descending FlightAware
06:36AM -30.2568 149.7970 346° North 461 531 32,200  Climbing Aus ATC (RADAR)
06:36AM -30.2860 149.8180 346° North 463 533 32,000 -240 Descending FlightAware
06:37AM -30.2160 149.7980 346° North 463 533 32,000 240 Level FlightAware
06:37AM -30.0812 149.6986 346° North 464 534 32,300 360 Climbing Aus ATC (RADAR)
06:37AM -30.0516 149.6823 334° Northwest 465 535 32,300 -900 Level Aus ATC (RADAR)
06:37AM -30.1270 149.7720 334° Northwest 463 533 32,000  Descending FlightAware
06:38AM -29.9877 149.6460 334° Northwest 472 543 32,300  Climbing Aus ATC (RADAR)
06:38AM -30.0570 149.7520 334° Northwest 463 533 32,000  Descending FlightAware
06:39AM -29.8834 149.5889 334° Northwest 470 541 32,300  Climbing Aus ATC (RADAR)
06:39AM -29.9860 149.7320 334° Northwest 463 533 32,000  Descending FlightAware
06:39AM -29.8139 149.5504 334° Northwest 471 542 32,300  Climbing Aus ATC (RADAR)
06:39AM -29.9150 149.7110 334° Northwest 463 533 32,000 -420 Descending FlightAware
06:40AM -29.8450 149.6910 346° North 463 533 32,000  Level FlightAware
06:40AM -29.6881 149.4817 346° North 481 554 32,000  Level Aus ATC (RADAR)
06:41AM -29.7740 149.6710 346° North 463 533 32,000 360 Level FlightAware
06:41AM -29.5930 149.4285 346° North 475 547 32,300  Climbing Aus ATC (RADAR)
06:41AM -29.7030 149.6500 346° North 463 533 32,000 -360 Descending FlightAware
06:42AM -29.4869 149.3718 346° North 482 555 32,000  Level Aus ATC (RADAR)
06:42AM -29.6330 149.6300 346° North 463 533 32,000 240 Level FlightAware
06:43AM -29.3916 149.3187 346° North 477 549 32,200  Climbing Aus ATC (RADAR)
06:44AM -29.2855 149.2625 335° Northwest 482 555 32,000  Descending Aus ATC (RADAR)
06:45AM -29.1902 149.2095 334° Northwest 477 549 32,200 60 Climbing Aus ATC (RADAR)
06:45AM -29.0792 149.1494 335° Northwest 478 550 32,200 60 Level Aus ATC (RADAR)
06:46AM -28.9882 149.1001 335° Northwest 479 551 32,300 -60 Climbing Aus ATC (RADAR)
06:47AM -28.8720 149.0378 335° Northwest 485 558 32,100  Descending Aus ATC (RADAR)
06:48AM -28.7755 148.9856 335° Northwest 480 552 32,300  Climbing Aus ATC (RADAR)
06:49AM -28.6688 148.9286 335° Northwest 486 559 32,100 -180 Descending Aus ATC (RADAR)
06:49AM -28.5971 148.8914 335° Northwest 486 559 32,100 60 Level Aus ATC (RADAR)
06:50AM -28.4718 148.8231 334° Northwest 477 549 32,200 60 Climbing Aus ATC (RADAR)
06:51AM -28.4418 148.8069 335° Northwest 475 547 32,200 -300 Level Aus ATC (RADAR)
06:51AM -28.3775 148.7700 333° Northwest 478 550 32,000  Descending Aus ATC (RADAR)
06:52AM -28.2724 148.7161 336° Northwest 472 543 32,200 120 Climbing Aus ATC (RADAR)
06:52AM -28.2430 148.7001 334° Northwest 471 542 32,200  Level Aus ATC (RADAR)
06:53AM -28.1735 148.6631 335° Northwest 470 541 32,200  Level Aus ATC (RADAR)
06:54AM -28.0756 148.6111 335° Northwest 464 534 32,200  Level Aus ATC (RADAR)
06:54AM -28.0081 148.5759 335° Northwest 457 526 32,200 60 Level Aus ATC (RADAR)
06:55AM -27.8958 148.5034 330° Northwest 455 524 32,300 60 Climbing Aus ATC (RADAR)
06:56AM -27.8659 148.4851 332° Northwest 464 534 32,300  Level Aus ATC (RADAR)
06:56AM -27.7972 148.4441 332° Northwest 472 543 32,300  Level Aus ATC (RADAR)
06:57AM -27.6977 148.3847 332° Northwest 478 550 32,300 -120 Level Aus ATC (RADAR)
06:57AM -27.6680 148.3673 333° Northwest 479 551 32,200 -120 Descending Aus ATC (RADAR)
06:58AM -27.5991 148.3258 332° Northwest 480 552 32,200  Level Aus ATC (RADAR)
06:59AM -27.4908 148.2617 332° Northwest 478 550 32,200  Level Aus ATC (RADAR)
06:59AM -27.4617 148.2445 332° Northwest 476 548 32,200  Level Aus ATC (RADAR)
07:00AM -27.3938 148.2042 332° Northwest 473 544 32,200  Level Aus ATC (RADAR)
07:01AM -27.2355 148.1150 333° Northwest 461 531 32,200  Level Aus ATC (RADAR)
07:02AM -27.1481 148.0636 332° Northwest 470 541 32,200  Level Aus ATC (RADAR)
07:02AM -27.0614 148.0129 333° Northwest 468 539 32,200 60 Level Aus ATC (RADAR)
07:03AM -26.9937 147.9728 332° Northwest 469 540 32,300 60 Climbing Aus ATC (RADAR)
07:04AM -26.8970 147.9160 332° Northwest 469 540 32,300 -60 Level Aus ATC (RADAR)
07:05AM -26.7997 147.8596 333° Northwest 471 542 32,200 -60 Descending Aus ATC (RADAR)
07:06AM -26.6843 147.7921 332° Northwest 466 536 32,200  Level Aus ATC (RADAR)
07:06AM -26.5882 147.7360 332° Northwest 468 539 32,200  Level Aus ATC (RADAR)
07:07AM -26.4734 147.6686 332° Northwest 466 536 32,200  Level Aus ATC (RADAR)
07:08AM -26.4166 147.6363 333° Northwest 462 532 32,200  Level Aus ATC (RADAR)
07:09AM -26.3129 147.5766 333° Northwest 460 529 32,200  Level Aus ATC (RADAR)
07:09AM -26.2460 147.5385 333° Northwest 461 531 32,200  Level Aus ATC (RADAR)
07:10AM -26.1301 147.4716 333° Northwest 458 527 32,200  Level Aus ATC (RADAR)
07:11AM -26.1016 147.4551 333° Northwest 456 525 32,200 120 Level Aus ATC (RADAR)
07:11AM -26.0349 147.4172 333° Northwest 459 528 32,300 60 Climbing Aus ATC (RADAR)
07:12AM -25.9260 147.3541 332° Northwest 474 545 32,300  Level Aus ATC (RADAR)
07:12AM -25.8964 147.3366 332° Northwest 476 548 32,300 -120 Level Aus ATC (RADAR)
07:13AM -25.8277 147.2975 333° Northwest 476 548 32,200 -120 Descending Aus ATC (RADAR)
07:14AM -25.7220 147.2371 333° Northwest 471 542 32,200  Level Aus ATC (RADAR)
07:14AM -25.6650 147.2047 333° Northwest 467 537 32,200  Level Aus ATC (RADAR)
07:16AM -25.5201 147.1222 333° Northwest 467 537 32,200  Level Aus ATC (RADAR)
07:16AM -25.4916 147.1059 333° Northwest 467 537 32,200  Level Aus ATC (RADAR)
07:17AM -25.4149 147.0620 333° Northwest 466 536 32,200  Level Aus ATC (RADAR)
07:18AM -25.2705 146.9804 333° Northwest 465 535 32,200  Level Aus ATC (RADAR)
07:19AM -25.1755 146.9263 333° Northwest 463 533 32,200  Level Aus ATC (RADAR)
07:19AM -25.1352 146.9038 333° Northwest 468 539 32,200  Level Aus ATC (RADAR)
07:20AM -25.0774 146.8709 333° Northwest 468 539 32,200  Level Aus ATC (RADAR)
07:21AM -24.9032 146.7726 333° Northwest 473 544 32,200  Level Aus ATC (RADAR)
07:22AM -24.8157 146.7238 333° Northwest 471 542 32,200  Level Aus ATC (RADAR)
07:23AM -24.7083 146.6634 333° Northwest 472 543 32,200  Level Aus ATC (RADAR)
07:23AM -24.6789 146.6469 333° Northwest 473 544 32,200  Level Aus ATC (RADAR)
07:23AM -24.6202 146.6140 333° Northwest 473 544 32,200  Level Aus ATC (RADAR)
07:24AM -24.5137 146.5541 333° Northwest 470 541 32,200 -240 Level Aus ATC (RADAR)
07:24AM -24.5270 146.5620 333° Northwest 470 541 32,000  Descending FlightAware
07:25AM -24.4550 146.5216 333° Northwest 472 543 32,200  Climbing Aus ATC (RADAR)
07:25AM -24.4480 146.5170 333° Northwest 469 540 32,000 -240 Descending FlightAware
07:26AM -24.3590 146.4680 333° Northwest 467 537 32,000 120 Level FlightAware
07:26AM -24.2911 146.4300 333° Northwest 467 537 32,200  Climbing Aus ATC (RADAR)
07:26AM -24.2850 146.4270 333° Northwest 467 537 32,000  Descending FlightAware
07:27AM -24.2233 146.3928 333° Northwest 467 537 32,200  Climbing Aus ATC (RADAR)
07:27AM -24.1690 146.3630 333° Northwest 466 536 32,000 -180 Descending FlightAware
07:28AM -24.0960 146.3220 333° Northwest 466 536 32,000  Level FlightAware
07:29AM -24.0310 146.2850 333° Northwest 466 536 32,000 180 Level FlightAware
07:29AM -23.9534 146.2432 333° Northwest 467 537 32,200 300 Climbing Aus ATC (RADAR)
07:29AM -23.9244 146.2267 332° Northwest 467 537 32,200 -600 Level Aus ATC (RADAR)
07:30AM -23.9660 146.2490 332° Northwest 466 536 32,000 -240 Descending FlightAware
07:30AM -23.9710 146.2520 151° Southeast 466 536 32,000  Level FlightAware
07:31AM -23.9050 146.2160 333° Northwest 466 536 32,000  Level FlightAware
07:32AM -23.8400 146.1790 332° Northwest 466 536 32,000  Level FlightAware
07:32AM -23.7580 146.1340 333° Northwest 466 536 32,000 120 Level FlightAware
07:33AM -23.5362 146.0126 333° Northwest 474 545 32,200  Climbing Aus ATC (RADAR)
07:33AM -23.6930 146.0970 333° Northwest 466 536 32,000  Descending FlightAware
07:34AM -23.4509 145.9673 333° Northwest 467 537 32,200  Climbing Aus ATC (RADAR)
07:34AM -23.6280 146.0610 333° Northwest 466 536 32,000  Descending FlightAware
07:34AM -23.3534 145.9139 333° Northwest 472 543 32,200  Climbing Aus ATC (RADAR)
07:34AM -23.5620 146.0250 333° Northwest 466 536 32,000 -300 Descending FlightAware
07:35AM -23.4970 145.9880 333° Northwest 466 536 32,000 240 Level FlightAware
07:35AM -23.2564 145.8611 333° Northwest 468 539 32,200  Climbing Aus ATC (RADAR)
07:36AM -23.4320 145.9520 333° Northwest 466 536 32,000  Descending FlightAware
07:36AM -23.1399 145.7971 333° Northwest 469 540 32,200  Climbing Aus ATC (RADAR)
07:37AM -23.3500 145.9070 333° Northwest 466 536 32,000  Descending FlightAware
07:37AM -23.0515 145.7493 333° Northwest 475 547 32,200  Climbing Aus ATC (RADAR)
07:37AM -23.2850 145.8700 333° Northwest 466 536 32,000  Descending FlightAware
07:38AM -22.9344 145.6852 333° Northwest 475 547 32,200  Climbing Aus ATC (RADAR)
07:38AM -23.2190 145.8340 333° Northwest 466 536 32,000 -300 Descending FlightAware
07:39AM -23.1540 145.7980 333° Northwest 466 536 32,000 240 Level FlightAware
07:39AM -22.8470 145.6379 333° Northwest 470 541 32,200  Climbing Aus ATC (RADAR)
07:39AM -23.0890 145.7620 333° Northwest 466 536 32,000  Descending FlightAware
07:40AM -22.7386 145.5791 333° Northwest 473 544 32,200 180 Climbing Aus ATC (RADAR)
07:40AM -22.6703 145.5417 333° Northwest 472 543 32,200  Level Aus ATC (RADAR)
07:41AM -22.5529 145.4783 333° Northwest 475 547 32,200  Level Aus ATC (RADAR)
07:41AM -22.5239 145.4625 333° Northwest 472 543 32,200  Level Aus ATC (RADAR)
07:42AM -22.4651 145.4307 333° Northwest 474 545 32,200  Level Aus ATC (RADAR)
07:43AM -22.3577 145.3731 334° Northwest 471 542 32,200  Level Aus ATC (RADAR)
07:43AM -22.3281 145.3571 333° Northwest 473 544 32,200  Level Aus ATC (RADAR)
07:44AM -22.2594 145.3202 334° Northwest 474 545 32,200  Level Aus ATC (RADAR)
07:45AM -22.1514 145.2626 334° Northwest 474 545 32,200  Level Aus ATC (RADAR)
07:45AM -22.0825 145.2257 334° Northwest 474 545 32,200 60 Level Aus ATC (RADAR)
07:46AM -21.9648 145.1621 333° Northwest 474 545 32,300 60 Climbing Aus ATC (RADAR)
07:46AM -21.9353 145.1466 334° Northwest 474 545 32,300 -300 Level Aus ATC (RADAR)
07:47AM -21.8759 145.1150 334° Northwest 477 549 32,100 -180 Descending Aus ATC (RADAR)
07:48AM -21.7675 145.0566 333° Northwest 479 551 32,100  Level Aus ATC (RADAR)
07:48AM -21.7379 145.0407 333° Northwest 478 550 32,100  Level Aus ATC (RADAR)
07:49AM -21.6682 145.0034 334° Northwest 480 552 32,100  Level Aus ATC (RADAR)
07:49AM -21.5697 144.9514 334° Northwest 479 551 32,100  Level Aus ATC (RADAR)
07:50AM -21.5006 144.9149 334° Northwest 478 550 32,100  Level Aus ATC (RADAR)
07:51AM -21.3727 144.8466 334° Northwest 476 548 32,100  Level Aus ATC (RADAR)
07:51AM -21.3436 144.8311 334° Northwest 473 544 32,100  Level Aus ATC (RADAR)
07:52AM -21.2747 144.7947 334° Northwest 474 545 32,100  Level Aus ATC (RADAR)
07:53AM -21.1676 144.7379 334° Northwest 471 542 32,100  Level Aus ATC (RADAR)
07:53AM -21.1383 144.7226 334° Northwest 470 541 32,100  Level Aus ATC (RADAR)
07:54AM -21.0798 144.6918 334° Northwest 470 541 32,100  Level Aus ATC (RADAR)
07:55AM -20.9719 144.6351 334° Northwest 473 544 32,100  Level Aus ATC (RADAR)
07:55AM -20.9033 144.5990 334° Northwest 473 544 32,100  Level Aus ATC (RADAR)
07:56AM -20.7851 144.5367 334° Northwest 475 547 32,100  Level Aus ATC (RADAR)
07:56AM -20.7554 144.5210 334° Northwest 476 548 32,100 120 Level Aus ATC (RADAR)
07:57AM -20.6859 144.4843 334° Northwest 478 550 32,200 60 Climbing Aus ATC (RADAR)
07:58AM -20.5862 144.4320 334° Northwest 480 552 32,200 -120 Level Aus ATC (RADAR)
07:58AM -20.5562 144.4165 334° Northwest 481 554 32,100 -180 Descending Aus ATC (RADAR)
07:59AM -20.4870 144.3800 334° Northwest 478 550 32,100  Level Aus ATC (RADAR)
07:59AM -20.3873 144.3279 334° Northwest 479 551 32,100  Level Aus ATC (RADAR)
08:00AM -20.3178 144.2916 334° Northwest 478 550 32,100  Level Aus ATC (RADAR)
08:01AM -20.2283 144.2449 334° Northwest 478 550 32,100 -120 Level Aus ATC (RADAR)
08:02AM -20.1480 144.2040 334° Northwest 476 548 32,000  Descending FlightAware
08:02AM -20.1389 144.1983 334° Northwest 478 550 32,100 120 Climbing Aus ATC (RADAR)
08:02AM -20.0696 144.1625 334° Northwest 477 549 32,100 -180 Level Aus ATC (RADAR)
08:02AM -20.0570 144.1560 334° Northwest 476 548 32,000  Descending FlightAware
08:03AM -19.9702 144.1106 334° Northwest 479 551 32,100  Climbing Aus ATC (RADAR)
08:03AM -19.9730 144.1130 334° Northwest 476 548 32,000 -180 Descending FlightAware
08:04AM -19.9080 144.0770 332° Northwest 476 548 32,000  Level FlightAware
08:04AM -19.8420 144.0410 333° Northwest 476 548 32,000 60 Level FlightAware
08:05AM -19.7714 144.0076 333° Northwest 478 550 32,100  Climbing Aus ATC (RADAR)
08:05AM -19.7190 143.9810 333° Northwest 476 548 32,000  Descending FlightAware
08:05AM -19.6821 143.9615 333° Northwest 476 548 32,100  Climbing Aus ATC (RADAR)
08:06AM -19.6370 143.9390 333° Northwest 477 549 32,000  Descending FlightAware
08:06AM -19.5826 143.9102 333° Northwest 478 550 32,100 120 Climbing Aus ATC (RADAR)
08:06AM -19.5525 143.8948 334° Northwest 478 550 32,100 -360 Level Aus ATC (RADAR)
08:07AM -19.5490 143.8940 334° Northwest 478 550 32,000  Descending FlightAware
08:07AM -19.4826 143.8586 334° Northwest 480 552 32,100  Climbing Aus ATC (RADAR)
08:07AM -19.4850 143.8610 334° Northwest 479 551 32,000  Descending FlightAware
08:08AM -19.3719 143.8020 334° Northwest 480 552 32,100  Climbing Aus ATC (RADAR)
08:08AM -19.3470 143.7890 334° Northwest 481 554 32,000  Descending FlightAware
08:09AM -19.2814 143.7552 334° Northwest 481 554 32,100 120 Climbing Aus ATC (RADAR)
08:09AM -19.2660 143.7480 334° Northwest 482 555 32,100  Level FlightAware
08:10AM -19.1703 143.6979 334° Northwest 485 558 32,100  Level Aus ATC (RADAR)
08:10AM -19.1580 143.6920 334° Northwest 483 556 32,100  Level FlightAware
08:10AM -19.1100 143.6672 334° Northwest 481 554 32,100  Level Aus ATC (RADAR)
08:10AM -19.0800 143.6520 334° Northwest 484 557 32,100 120 Level FlightAware
08:11AM -19.0188 143.6205 334° Northwest 485 558 32,200 -120 Climbing Aus ATC (RADAR)
08:12AM -18.9381 143.5791 334° Northwest 485 558 32,000 -120 Descending Aus ATC (RADAR)
08:12AM -18.9300 143.5760 334° Northwest 485 558 32,100 120 Climbing FlightAware
08:12AM -18.8673 143.5428 334° Northwest 484 557 32,100  Level Aus ATC (RADAR)
08:13AM -18.7659 143.4914 334° Northwest 486 559 32,100  Level Aus ATC (RADAR)
08:13AM -18.7355 143.4760 334° Northwest 485 558 32,100  Level Aus ATC (RADAR)
08:14AM -18.6749 143.4450 334° Northwest 484 557 32,100  Level Aus ATC (RADAR)
08:15AM -18.5741 143.3935 334° Northwest 484 557 32,100  Level Aus ATC (RADAR)
08:15AM -18.5235 143.3674 334° Northwest 486 559 32,100 -180 Level Aus ATC (RADAR)
08:15AM -18.5260 143.3680 334° Northwest 483 556 32,000  Descending FlightAware
08:16AM -18.4531 143.3318 334° Northwest 482 555 32,100  Climbing Aus ATC (RADAR)
08:16AM -18.4410 143.3260 334° Northwest 483 556 32,000  Descending FlightAware
08:16AM -18.3417 143.2754 334° Northwest 484 557 32,100  Climbing Aus ATC (RADAR)
08:16AM -18.3590 143.2840 334° Northwest 483 556 32,000  Descending FlightAware
08:17AM -18.3112 143.2600 334° Northwest 485 558 32,100  Climbing Aus ATC (RADAR)
08:17AM -18.2900 143.2480 334° Northwest 483 556 32,000 -120 Descending FlightAware
08:18AM -18.2050 143.2050 334° Northwest 483 556 32,000 60 Level FlightAware
08:19AM -18.0818 143.1355 334° Northwest 483 556 32,100  Climbing Aus ATC (RADAR)
08:19AM -18.1370 143.1700 334° Northwest 483 556 32,000 180 Descending FlightAware
08:19AM -18.0223 143.1034 334° Northwest 482 555 32,200  Climbing Aus ATC (RADAR)
08:19AM -18.0680 143.1350 334° Northwest 483 556 32,000 480 Descending FlightAware
08:20AM -17.9230 143.0490 334° Northwest 482 555 32,600  Climbing Aus ATC (RADAR)
08:20AM -18.0000 143.1000 334° Northwest 483 556 32,000 1,500 Descending FlightAware
08:21AM -17.8537 143.0113 334° Northwest 482 555 33,500  Climbing Aus ATC (RADAR)
08:21AM -17.9320 143.0650 334° Northwest 483 556 32,000 -1,680 Descending FlightAware
08:21AM -17.8460 143.0210 334° Northwest 483 556 32,000 1,920 Level FlightAware
08:22AM -17.7187 142.9385 334° Northwest 469 540 34,100 3,120 Climbing Aus ATC (RADAR)
08:22AM -17.6710 142.9126 333° Northwest 465 535 34,100 -5,040 Level Aus ATC (RADAR)
08:22AM -17.7780 142.9860 333° Northwest 483 556 32,000  Descending FlightAware
08:23AM -17.6051 142.8769 333° Northwest 458 527 34,100  Climbing Aus ATC (RADAR)
08:23AM -17.7100 142.9510 333° Northwest 483 556 32,000 -2,760 Descending FlightAware
08:23AM -17.6420 142.9160 333° Northwest 483 556 32,000 2,820 Level FlightAware
08:24AM -17.5080 142.8249 333° Northwest 465 535 34,100 3,180 Climbing Aus ATC (RADAR)
08:24AM -17.4411 142.7885 333° Northwest 464 534 34,100 -3,540 Level Aus ATC (RADAR)
08:24AM -17.5730 142.8810 333° Northwest 483 556 32,000 -3,120 Descending FlightAware
08:25AM -17.5050 142.8460 334° Northwest 483 556 32,000 1,920 Level FlightAware
08:25AM -17.3144 142.7202 334° Northwest 471 542 34,100  Climbing Aus ATC (RADAR)
08:26AM -17.4200 142.8020 334° Northwest 483 556 32,000  Descending FlightAware
08:27AM -17.1503 142.6316 334° Northwest 469 540 34,100 1,200 Climbing Aus ATC (RADAR)
08:27AM -17.0635 142.5853 333° Northwest 467 537 34,100  Level Aus ATC (RADAR)
08:28AM -16.9666 142.5334 333° Northwest 468 539 34,100  Level Aus ATC (RADAR)
08:28AM -16.9376 142.5179 333° Northwest 466 536 34,100  Level Aus ATC (RADAR)
08:29AM -16.8701 142.4812 333° Northwest 469 540 34,100  Level Aus ATC (RADAR)
08:30AM -16.7720 142.4291 333° Northwest 473 544 34,100  Level Aus ATC (RADAR)
08:30AM -16.7436 142.4135 332° Northwest 470 541 34,100  Level Aus ATC (RADAR)
08:31AM -16.6845 142.3820 333° Northwest 473 544 34,100  Level Aus ATC (RADAR)
08:32AM -16.5668 142.3196 333° Northwest 472 543 34,100  Level Aus ATC (RADAR)
08:32AM -16.5374 142.3035 332° Northwest 474 545 34,100  Level Aus ATC (RADAR)
08:32AM -16.4691 142.2672 333° Northwest 472 543 34,100  Level Aus ATC (RADAR)
08:33AM -16.3707 142.2148 333° Northwest 474 545 34,100  Level Aus ATC (RADAR)
08:34AM -16.2825 142.1678 333° Northwest 475 547 34,100  Level Aus ATC (RADAR)
08:35AM -16.1841 142.1164 333° Northwest 472 543 34,100  Level Aus ATC (RADAR)
08:35AM -16.1551 142.1009 333° Northwest 472 543 34,100  Level Aus ATC (RADAR)
08:36AM -16.0852 142.0650 334° Northwest 476 548 34,100  Level Aus ATC (RADAR)
08:37AM -15.9583 141.9978 333° Northwest 471 542 34,100  Level Aus ATC (RADAR)
08:38AM -15.8695 141.9511 333° Northwest 470 541 34,100 -120 Level Aus ATC (RADAR)
08:38AM -15.7746 141.8989 332° Northwest 456 525 34,000 -120 Descending Aus ATC (RADAR)
08:39AM -15.7435 141.8846 336° Northwest 464 534 34,000  Level Aus ATC (RADAR)
08:39AM -15.6850 141.8543 333° Northwest 466 536 34,000  Level Aus ATC (RADAR)
08:40AM -15.5852 141.8049 335° Northwest 472 543 34,000  Level Aus ATC (RADAR)
08:40AM -15.5566 141.7897 333° Northwest 469 540 34,000  Level Aus ATC (RADAR)
08:41AM -15.4879 141.7546 334° Northwest 470 541 34,000  Level Aus ATC (RADAR)
08:41AM -15.4105 141.7130 333° Northwest 471 542 34,000  Level Aus ATC (RADAR)
08:43AM -15.2818 141.6406 332° Northwest 509 586 34,000  Level Aus ATC (RADAR)
08:43AM -15.1770 141.5788 330° Northwest 480 552 34,100  Climbing Aus ATC (RADAR)
08:44AM -15.0913 141.5280 330° Northwest 477 549 34,000 -120 Descending Aus ATC (RADAR)
08:44AM -15.0621 141.5117 332° Northwest 477 549 34,000  Level Aus ATC (RADAR)
08:46AM -14.9332 141.4422 332° Northwest 495 570 34,000 -60 Level Aus ATC (RADAR)
08:49AM -14.5604 141.2293 323° Northwest 34,000 -60 Level Aus ATC (Calculated)
08:51AM -14.3735 141.1228 331° Northwest  Level FlightAware Approximate
08:52AM -14.2613 141.0590 331° Northwest  Level FlightAware Approximate
08:53AM -14.1491 140.9953 331° Northwest  Level FlightAware Approximate
08:54AM -14.0369 140.9317 331° Northwest  Level FlightAware Approximate
08:54AM -13.9406 140.8771 323° Northwest 34,000  Level Aus ATC (Calculated)
08:56AM -13.7516 140.7702 331° Northwest  Level FlightAware Approximate
08:57AM -13.6394 140.7067 331° Northwest  Level FlightAware Approximate
08:58AM -13.5271 140.6433 331° Northwest  Level FlightAware Approximate
08:59AM -13.4148 140.5800 331° Northwest  Level FlightAware Approximate
08:59AM -13.3335 140.5342 323° Northwest 34,000  Level Aus ATC (Calculated)
09:01AM -13.1444 140.4278 331° Northwest  Level FlightAware Approximate
09:02AM -13.0320 140.3647 331° Northwest  Level FlightAware Approximate
09:03AM -12.9197 140.3016 331° Northwest  Level FlightAware Approximate
09:04AM -12.8073 140.2386 331° Northwest  Level FlightAware Approximate
09:04AM -12.7376 140.1995 323° Northwest 34,000  Level Aus ATC (Calculated)
09:05AM -12.6949 140.1756 331° Northwest  Level FlightAware Approximate
09:06AM -12.5465 140.0926 331° Northwest  Level FlightAware Approximate
09:07AM -12.4340 140.0298 331° Northwest  Level FlightAware Approximate
09:08AM -12.3216 139.9670 331° Northwest  Level FlightAware Approximate
09:09AM -12.2091 139.9043 331° Northwest  Level FlightAware Approximate
09:09AM -12.1225 139.8560 323° Northwest 34,000  Level Aus ATC (Calculated)
09:10AM -12.0967 139.8416 331° Northwest  Level FlightAware Approximate
09:11AM -11.9313 139.7496 331° Northwest  Level FlightAware Approximate
09:12AM -11.8188 139.6871 331° Northwest  Level FlightAware Approximate
09:13AM -11.7063 139.6246 331° Northwest  Level FlightAware Approximate
09:14AM -11.5937 139.5621 331° Northwest  Level FlightAware Approximate
09:14AM -11.5350 139.5296 322° Northwest 34,000  Level Aus ATC (Calculated)
09:14AM -11.5350 139.5296 322° Northwest 34,000 -60 Level Aus ATC (Calculated)
09:16AM -11.3418 139.4226 331° Northwest  Level FlightAware Approximate
09:17AM -11.2292 139.3603 332° Northwest  Level FlightAware Approximate
09:18AM -11.1166 139.2981 332° Northwest  Level FlightAware Approximate
09:18AM -11.0206 139.2451 322° Northwest 34,000  Level Aus ATC (Calculated)
09:18AM -10.9471 139.2045 322° Northwest 34,000 -60 Level Aus ATC (Calculated)
09:20AM -11.0554 139.2857 144° Southeast  Level FlightAware Approximate
09:20AM -10.8167 139.1329 322° Northwest 34,000  Level Aus ATC (Calculated)
09:21AM -10.9523 139.2084 324° Northwest  Level FlightAware Approximate
09:21AM -10.6333 139.0325 322° Northwest 34,000  Level Aus ATC (Calculated)
09:22AM -11.0384 139.2547 152° Southeast  Level FlightAware Approximate
09:23AM -10.7648 139.1046 152° Southeast  Level FlightAware Approximate
09:24AM -10.8776 139.1664 152° Southeast  Level FlightAware Approximate
09:24AM -10.2453 138.8203 322° Northwest 34,000  Level Aus ATC (Calculated)
09:25AM -10.8504 139.1515 332° Northwest  Level FlightAware Approximate
09:26AM -10.1249 138.7547 332° Northwest  Level FlightAware Approximate
09:27AM -10.0121 138.6931 332° Northwest  Level FlightAware Approximate
09:27AM -9.8987 138.6313 322° Northwest 34,000  Level Aus ATC (Calculated)
09:28AM -9.8992 138.6317 332° Northwest  Level FlightAware Approximate
09:29AM -9.7765 138.5648 332° Northwest  Level FlightAware Approximate
09:29AM -9.6387 138.4898 322° Northwest 34,000  Level Aus ATC (Calculated)
09:30AM -9.6636 138.5034 332° Northwest  Level FlightAware Approximate
09:31AM -9.5183 138.4244 332° Northwest  Level FlightAware Approximate
09:32AM -9.4054 138.3631 332° Northwest  Level FlightAware Approximate
09:32AM -9.3949 138.3574 322° Northwest 34,000  Level Aus ATC (Calculated)
09:33AM -9.2820 138.2961 332° Northwest  Level FlightAware Approximate
09:34AM -9.1691 138.2349 332° Northwest  Level FlightAware Approximate
09:34AM -9.1937 138.2483 322° Northwest 34,000  Level Aus ATC (Calculated)
09:34AM -9.1099 138.2029 322° Northwest 34,000 -60 Level Aus ATC (Calculated)
09:35AM -9.0808 138.1871 332° Northwest  Level FlightAware Approximate
09:35AM -8.9841 138.1348 322° Northwest 34,000  Level Aus ATC (Calculated)
09:36AM -8.9894 138.1376 332° Northwest  Level FlightAware Approximate
09:37AM -8.8674 138.0716 332° Northwest  Level FlightAware Approximate
09:37AM -8.8127 138.0314 322° Northwest 34,000  Level Aus ATC (Calculated)
09:37AM -8.7671 137.9961 322° Northwest 34,000 -60 Level Aus ATC (Calculated)
09:39AM -8.8722 138.0774 143° Southeast  Level FlightAware Approximate
09:40AM -8.7705 137.9987 323° Northwest  Level FlightAware Approximate
09:41AM -8.8722 138.0774 143° Southeast  Level FlightAware Approximate
09:42AM -8.7705 137.9987 323° Northwest  Level FlightAware Approximate
09:43AM -8.8722 138.0774 143° Southeast  Level FlightAware Approximate
09:44AM -8.7873 138.0116 323° Northwest  Level FlightAware Approximate
09:45AM -8.6856 137.9329 323° Northwest  Level FlightAware Approximate
09:46AM -8.5838 137.8542 323° Northwest  Level FlightAware Approximate
09:47AM -8.4821 137.7756 323° Northwest  Level FlightAware Approximate
09:47AM -7.7173 137.1862 322° Northwest 34,000  Level Aus ATC (Calculated)
09:48AM -8.3803 137.6970 323° Northwest  Level FlightAware Approximate
09:49AM -7.5306 137.0426 323° Northwest  Level FlightAware Approximate
09:50AM -7.4287 136.9644 323° Northwest  Level FlightAware Approximate
09:50AM -7.3975 136.9405 322° Northwest 34,000  Level Aus ATC (Calculated)
09:51AM -7.3267 136.8862 323° Northwest  Level FlightAware Approximate
09:52AM -7.2107 136.7972 323° Northwest  Level FlightAware Approximate
09:53AM -7.1087 136.7190 323° Northwest  Level FlightAware Approximate
09:54AM -7.0068 136.6409 323° Northwest  Level FlightAware Approximate
09:55AM -6.9048 136.5629 323° Northwest  Level FlightAware Approximate
09:56AM -6.8028 136.4848 323° Northwest  Level FlightAware Approximate
09:57AM -6.7008 136.4068 323° Northwest  Level FlightAware Approximate
09:58AM -6.5988 136.3289 323° Northwest  Level FlightAware Approximate
09:59AM -6.4968 136.2509 323° Northwest  Level FlightAware Approximate
10:00AM -6.3948 136.1730 323° Northwest  Level FlightAware Approximate
10:01AM -6.2927 136.0952 323° Northwest  Level FlightAware Approximate
10:02AM -6.1906 136.0173 323° Northwest  Level FlightAware Approximate
10:03AM -6.0886 135.9395 323° Northwest  Level FlightAware Approximate
10:04AM -5.9865 135.8618 323° Northwest  Level FlightAware Approximate
10:05AM -5.8844 135.7840 323° Northwest  Level FlightAware Approximate
10:06AM -5.7823 135.7063 323° Northwest  Level FlightAware Approximate
10:07AM -5.6802 135.6286 323° Northwest  Level FlightAware Approximate
10:08AM -5.5781 135.5509 323° Northwest  Level FlightAware Approximate
10:09AM -5.4759 135.4733 323° Northwest  Level FlightAware Approximate
10:10AM -5.3738 135.3957 323° Northwest  Level FlightAware Approximate
10:11AM -5.2716 135.3181 323° Northwest  Level FlightAware Approximate
10:12AM -5.1695 135.2405 323° Northwest  Level FlightAware Approximate
10:13AM -5.0673 135.1630 323° Northwest  Level FlightAware Approximate
10:14AM -4.9651 135.0855 323° Northwest  Level FlightAware Approximate
10:15AM -4.8629 135.0080 323° Northwest  Level FlightAware Approximate
10:16AM -4.7607 134.9305 323° Northwest  Level FlightAware Approximate
10:17AM -4.6585 134.8531 323° Northwest  Level FlightAware Approximate
10:18AM -4.5563 134.7757 323° Northwest  Level FlightAware Approximate
10:19AM -4.4541 134.6983 323° Northwest  Level FlightAware Approximate
10:20AM -4.3519 134.6209 323° Northwest  Level FlightAware Approximate
10:21AM -4.2496 134.5435 323° Northwest  Level FlightAware Approximate
10:22AM -4.1474 134.4662 323° Northwest  Level FlightAware Approximate
10:23AM -4.0451 134.3889 323° Northwest  Level FlightAware Approximate
10:24AM -3.9429 134.3116 323° Northwest  Level FlightAware Approximate
10:25AM -3.8406 134.2343 323° Northwest  Level FlightAware Approximate
10:26AM -3.7383 134.1571 323° Northwest  Level FlightAware Approximate
10:27AM -3.6360 134.0798 323° Northwest  Level FlightAware Approximate
10:28AM -3.5338 134.0026 323° Northwest  Level FlightAware Approximate
10:29AM -3.4315 133.9254 323° Northwest  Level FlightAware Approximate
10:30AM -3.3292 133.8482 323° Northwest  Level FlightAware Approximate
10:31AM -3.2269 133.7711 323° Northwest  Level FlightAware Approximate
10:32AM -3.1245 133.6939 323° Northwest  Level FlightAware Approximate
10:33AM -3.0222 133.6167 323° Northwest  Level FlightAware Approximate
10:34AM -2.9199 133.5396 323° Northwest  Level FlightAware Approximate
10:35AM -3.0222 133.6167 143° Southeast  Level FlightAware Approximate
10:36AM -2.9199 133.5396 323° Northwest  Level FlightAware Approximate
10:37AM -3.0222 133.6167 143° Southeast  Level FlightAware Approximate
10:38AM -2.9199 133.5396 323° Northwest  Level FlightAware Approximate
10:39AM -3.0222 133.6167 143° Southeast  Level FlightAware Approximate
10:40AM -2.9186 133.5414 321° Northwest  Level Estimated
10:41AM -2.8188 133.4610 321° Northwest  Level FlightAware Approximate
10:42AM -2.7189 133.3807 321° Northwest  Level FlightAware Approximate
10:43AM -2.6191 133.3004 321° Northwest  Level FlightAware Approximate
10:44AM -2.5192 133.2202 321° Northwest  Level FlightAware Approximate
10:45AM -2.4194 133.1399 321° Northwest  Level FlightAware Approximate
10:46AM -2.3195 133.0596 321° Northwest  Level FlightAware Approximate
10:47AM -2.2197 132.9794 321° Northwest  Level FlightAware Approximate
10:48AM -2.1198 132.8991 321° Northwest  Level FlightAware Approximate
10:49AM -2.0199 132.8189 321° Northwest  Level FlightAware Approximate
10:50AM -1.9200 132.7387 321° Northwest  Level FlightAware Approximate
10:51AM -1.8201 132.6585 321° Northwest  Level FlightAware Approximate
10:52AM -1.7203 132.5783 321° Northwest  Level FlightAware Approximate
10:53AM -1.6204 132.4981 321° Northwest  Level FlightAware Approximate
10:54AM -1.5205 132.4179 321° Northwest  Level FlightAware Approximate
10:55AM -1.4206 132.3378 321° Northwest  Level FlightAware Approximate
10:56AM -1.3207 132.2576 321° Northwest  Level FlightAware Approximate
10:57AM -1.2208 132.1774 321° Northwest  Level FlightAware Approximate
10:58AM -1.1209 132.0973 321° Northwest  Level FlightAware Approximate
10:59AM -1.0209 132.0171 321° Northwest  Level FlightAware Approximate
11:00AM -0.9210 131.9370 321° Northwest  Level FlightAware Approximate
11:01AM -0.8211 131.8569 321° Northwest  Level FlightAware Approximate
11:02AM -0.7212 131.7767 321° Northwest  Level FlightAware Approximate
11:03AM -0.6213 131.6966 321° Northwest  Level FlightAware Approximate
11:04AM -0.5214 131.6165 321° Northwest  Level FlightAware Approximate
11:05AM -0.4215 131.5363 321° Northwest  Level FlightAware Approximate
11:06AM -0.3216 131.4562 321° Northwest  Level FlightAware Approximate
11:07AM -0.2216 131.3761 321° Northwest  Level FlightAware Approximate
11:08AM -0.1217 131.2960 321° Northwest  Level FlightAware Approximate
11:09AM -0.0218 131.2159 321° Northwest  Level FlightAware Approximate
11:10AM 0.0781 131.1357 321° Northwest  Level FlightAware Approximate
11:11AM 0.1780 131.0556 321° Northwest  Level FlightAware Approximate
11:12AM 0.2780 130.9755 321° Northwest  Level FlightAware Approximate
11:13AM 0.3779 130.8954 321° Northwest  Level FlightAware Approximate
11:14AM 0.4778 130.8153 321° Northwest  Level FlightAware Approximate
11:15AM 0.5777 130.7351 321° Northwest  Level FlightAware Approximate
11:16AM 0.6776 130.6550 321° Northwest  Level FlightAware Approximate
11:17AM 0.7775 130.5749 321° Northwest  Level FlightAware Approximate
11:18AM 0.8774 130.4947 321° Northwest  Level FlightAware Approximate
11:19AM 0.9774 130.4146 321° Northwest  Level FlightAware Approximate
11:20AM 1.0773 130.3344 321° Northwest  Level FlightAware Approximate
11:21AM 1.1772 130.2543 321° Northwest  Level FlightAware Approximate
11:22AM 1.2771 130.1741 321° Northwest  Level FlightAware Approximate
11:23AM 1.3770 130.0940 321° Northwest  Level FlightAware Approximate
11:24AM 1.4769 130.0138 321° Northwest  Level FlightAware Approximate
11:25AM 1.5768 129.9336 321° Northwest  Level FlightAware Approximate
11:26AM 1.6767 129.8534 321° Northwest  Level FlightAware Approximate
11:27AM 1.7766 129.7733 321° Northwest  Level FlightAware Approximate
11:28AM 1.8764 129.6931 321° Northwest  Level FlightAware Approximate
11:29AM 1.9808 129.6189 323° Northwest  Level Estimated
11:30AM 2.0829 129.5414 323° Northwest  Level FlightAware Approximate
11:31AM 2.1849 129.4640 323° Northwest  Level FlightAware Approximate
11:32AM 2.2870 129.3865 323° Northwest  Level FlightAware Approximate
11:33AM 2.3890 129.3090 323° Northwest  Level FlightAware Approximate
11:34AM 2.4910 129.2315 323° Northwest  Level FlightAware Approximate
11:35AM 2.5930 129.1540 323° Northwest  Level FlightAware Approximate
11:36AM 2.6951 129.0765 323° Northwest  Level FlightAware Approximate
11:37AM 2.7971 128.9990 323° Northwest  Level FlightAware Approximate
11:38AM 2.8991 128.9214 323° Northwest  Level FlightAware Approximate
11:39AM 3.0011 128.8439 323° Northwest  Level FlightAware Approximate
11:40AM 3.1031 128.7663 323° Northwest  Level FlightAware Approximate
11:41AM 3.2051 128.6888 323° Northwest  Level FlightAware Approximate
11:42AM 3.3070 128.6111 323° Northwest  Level FlightAware Approximate
11:43AM 3.4090 128.5335 323° Northwest  Level FlightAware Approximate
11:44AM 3.5110 128.4559 323° Northwest  Level FlightAware Approximate
11:45AM 3.6130 128.3783 323° Northwest  Level FlightAware Approximate
11:46AM 3.7149 128.3006 323° Northwest  Level FlightAware Approximate
11:47AM 3.8169 128.2229 323° Northwest  Level FlightAware Approximate
11:48AM 3.9188 128.1452 323° Northwest  Level FlightAware Approximate
11:49AM 4.0234 128.0711 322° Northwest  Level Estimated
11:50AM 4.1248 127.9926 322° Northwest  Level FlightAware Approximate
11:51AM 4.2262 127.9142 322° Northwest  Level FlightAware Approximate
11:52AM 4.3276 127.8357 322° Northwest  Level FlightAware Approximate
11:53AM 4.4290 127.7573 322° Northwest  Level FlightAware Approximate
11:54AM 4.5304 127.6788 322° Northwest  Level FlightAware Approximate
11:55AM 4.6317 127.6002 322° Northwest  Level FlightAware Approximate
11:56AM 4.7331 127.5217 322° Northwest  Level FlightAware Approximate
11:57AM 4.8344 127.4431 322° Northwest  Level FlightAware Approximate
11:58AM 4.9358 127.3645 322° Northwest  Level FlightAware Approximate
11:59AM 5.0371 127.2859 322° Northwest  Level FlightAware Approximate
12:00PM 5.1384 127.2073 322° Northwest  Level FlightAware Approximate
12:01PM 5.2397 127.1286 322° Northwest  Level FlightAware Approximate
12:02PM 5.3410 127.0499 322° Northwest  Level FlightAware Approximate
12:03PM 5.4423 126.9712 322° Northwest  Level FlightAware Approximate
12:04PM 5.5436 126.8924 322° Northwest  Level FlightAware Approximate
12:05PM 5.6449 126.8137 322° Northwest  Level FlightAware Approximate
12:06PM 5.7461 126.7348 322° Northwest  Level FlightAware Approximate
12:07PM 5.8474 126.6560 322° Northwest  Level FlightAware Approximate
12:08PM 5.9486 126.5772 322° Northwest  Level FlightAware Approximate
12:09PM 6.0499 126.4983 322° Northwest  Level FlightAware Approximate
12:10PM 6.1511 126.4194 322° Northwest  Level FlightAware Approximate
12:11PM 6.2523 126.3404 322° Northwest  Level FlightAware Approximate
12:12PM 6.3535 126.2614 322° Northwest  Level FlightAware Approximate
12:13PM 6.4547 126.1824 322° Northwest  Level FlightAware Approximate
12:14PM 6.5559 126.1034 322° Northwest  Level FlightAware Approximate
12:15PM 6.6570 126.0243 322° Northwest  Level FlightAware Approximate
12:16PM 6.7618 125.9501 322° Northwest  Level Estimated
12:17PM 6.8665 125.8760 322° Northwest  Level Estimated
12:18PM 6.9650 125.7934 320° Northwest  Level FlightAware Approximate
12:19PM 7.0634 125.7109 320° Northwest  Level FlightAware Approximate
12:20PM 7.1682 125.6367 321° Northwest  Level Estimated
12:21PM 7.2653 125.5525 319° Northwest  Level FlightAware Approximate
12:22PM 7.3624 125.4682 319° Northwest  Level FlightAware Approximate
12:23PM 7.4672 125.3941 321° Northwest  Level Estimated
12:24PM 7.5658 125.3116 320° Northwest  Level FlightAware Approximate
12:25PM 7.6643 125.2290 320° Northwest  Level FlightAware Approximate
12:26PM 7.7628 125.1464 320° Northwest  Level FlightAware Approximate
12:27PM 7.8613 125.0638 320° Northwest  Level FlightAware Approximate
12:28PM 7.9662 124.9896 321° Northwest  Level Estimated
12:29PM 8.0606 124.9022 317° Northwest  Level FlightAware Approximate
12:30PM 8.1656 124.8281 321° Northwest  Level Estimated
12:31PM 8.2624 124.7434 319° Northwest  Level FlightAware Approximate
12:32PM 8.3592 124.6586 319° Northwest  Level FlightAware Approximate
12:33PM 8.4643 124.5846 325° Northwest  Level Estimated
12:34PM 8.5693 124.5105 325° Northwest  Level FlightAware Approximate
12:35PM 8.6743 124.4363 325° Northwest  Level FlightAware Approximate
12:36PM 8.7793 124.3621 325° Northwest  Level FlightAware Approximate
12:37PM 8.8843 124.2879 325° Northwest  Level FlightAware Approximate
12:38PM 8.9893 124.2136 325° Northwest  Level FlightAware Approximate
12:39PM 9.0942 124.1393 325° Northwest  Level FlightAware Approximate
12:40PM 9.1992 124.0649 325° Northwest  Level FlightAware Approximate
12:41PM 9.3041 123.9905 325° Northwest  Level FlightAware Approximate
12:42PM 9.4090 123.9161 325° Northwest  Level FlightAware Approximate
12:43PM 9.5139 123.8416 325° Northwest  Level FlightAware Approximate
12:44PM 9.6188 123.7670 325° Northwest  Level FlightAware Approximate
12:45PM 9.7236 123.6925 325° Northwest  Level FlightAware Approximate
12:46PM 9.8285 123.6178 325° Northwest  Level FlightAware Approximate
12:47PM 9.9333 123.5431 325° Northwest  Level FlightAware Approximate
12:48PM 10.0381 123.4684 325° Northwest  Level FlightAware Approximate
12:49PM 10.1429 123.3936 325° Northwest  Level FlightAware Approximate
12:50PM 10.2477 123.3188 325° Northwest  Level FlightAware Approximate
12:51PM 10.3525 123.2439 325° Northwest  Level FlightAware Approximate
12:52PM 10.4572 123.1690 325° Northwest  Level FlightAware Approximate
12:53PM 10.5619 123.0940 325° Northwest  Level FlightAware Approximate
12:54PM 10.6666 123.0190 325° Northwest  Level FlightAware Approximate
12:55PM 10.7713 122.9439 325° Northwest  Level FlightAware Approximate
12:56PM 10.8760 122.8688 325° Northwest  Level FlightAware Approximate
12:57PM 10.9807 122.7936 325° Northwest  Level FlightAware Approximate
12:58PM 11.0853 122.7183 325° Northwest  Level FlightAware Approximate
12:59PM 11.1899 122.6430 325° Northwest  Level FlightAware Approximate
01:00PM 11.2945 122.5677 325° Northwest  Level FlightAware Approximate
01:01PM 11.3991 122.4923 325° Northwest  Level FlightAware Approximate
01:02PM 11.5037 122.4168 325° Northwest  Level FlightAware Approximate
01:03PM 11.6082 122.3413 325° Northwest  Level FlightAware Approximate
01:04PM 11.7127 122.2657 325° Northwest  Level FlightAware Approximate
01:05PM 11.8172 122.1901 325° Northwest  Level FlightAware Approximate
01:06PM 11.9217 122.1144 325° Northwest  Level FlightAware Approximate
01:07PM 12.0262 122.0387 325° Northwest  Level FlightAware Approximate
01:08PM 12.1306 121.9629 325° Northwest  Level FlightAware Approximate
01:09PM 12.2350 121.8870 325° Northwest  Level FlightAware Approximate
01:10PM 12.3394 121.8111 325° Northwest  Level FlightAware Approximate
01:11PM 12.4438 121.7351 325° Northwest  Level FlightAware Approximate
01:12PM 12.5482 121.6591 325° Northwest  Level FlightAware Approximate
01:13PM 12.6525 121.5829 325° Northwest  Level FlightAware Approximate
01:14PM 12.7568 121.5068 325° Northwest  Level FlightAware Approximate
01:15PM 12.8611 121.4305 325° Northwest  Level FlightAware Approximate
01:16PM 12.9654 121.3542 325° Northwest  Level FlightAware Approximate
01:17PM 13.0696 121.2779 324° Northwest  Level FlightAware Approximate
01:18PM 13.1739 121.2015 324° Northwest  Level FlightAware Approximate
01:19PM 13.2781 121.1250 324° Northwest  Level FlightAware Approximate
01:20PM 13.3822 121.0484 324° Northwest  Level FlightAware Approximate
01:21PM 13.4864 120.9718 324° Northwest  Level FlightAware Approximate
01:22PM 13.5906 120.8951 324° Northwest  Level FlightAware Approximate
01:23PM 13.6947 120.8184 324° Northwest  Level FlightAware Approximate
01:24PM 13.7987 120.7415 324° Northwest  Level FlightAware Approximate
01:25PM 13.9028 120.6646 324° Northwest  Level FlightAware Approximate
01:26PM 14.0069 120.5877 324° Northwest  Level FlightAware Approximate
01:27PM 14.1109 120.5107 324° Northwest  Level FlightAware Approximate
01:28PM 14.2149 120.4336 324° Northwest  Level FlightAware Approximate
01:29PM 14.3188 120.3564 324° Northwest  Level FlightAware Approximate
01:30PM 14.4228 120.2792 324° Northwest  Level FlightAware Approximate
01:31PM 14.5267 120.2018 324° Northwest  Level FlightAware Approximate
01:32PM 14.6306 120.1244 324° Northwest  Level FlightAware Approximate
01:33PM 14.7345 120.0470 324° Northwest  Level FlightAware Approximate
01:34PM 14.8383 119.9694 324° Northwest  Level FlightAware Approximate
01:35PM 14.9421 119.8918 324° Northwest  Level FlightAware Approximate
01:36PM 15.0459 119.8141 324° Northwest  Level FlightAware Approximate
01:37PM 15.1496 119.7364 324° Northwest  Level FlightAware Approximate
01:38PM 15.2534 119.6585 324° Northwest  Level FlightAware Approximate
01:39PM 15.3571 119.5806 324° Northwest  Level FlightAware Approximate
01:40PM 15.4608 119.5026 324° Northwest  Level FlightAware Approximate
01:41PM 15.5644 119.4246 324° Northwest  Level FlightAware Approximate
01:42PM 15.6680 119.3464 324° Northwest  Level FlightAware Approximate
01:43PM 15.7717 119.2682 324° Northwest  Level FlightAware Approximate
01:44PM 15.8752 119.1899 324° Northwest  Level FlightAware Approximate
01:45PM 15.9788 119.1115 324° Northwest  Level FlightAware Approximate
01:46PM 16.0823 119.0330 324° Northwest  Level FlightAware Approximate
01:47PM 16.1857 118.9545 324° Northwest  Level FlightAware Approximate
01:48PM 16.2892 118.8758 324° Northwest  Level FlightAware Approximate
01:49PM 16.3926 118.7971 324° Northwest  Level FlightAware Approximate
01:50PM 16.4960 118.7183 324° Northwest  Level FlightAware Approximate
01:51PM 16.5994 118.6395 324° Northwest  Level FlightAware Approximate
01:52PM 16.7027 118.5605 324° Northwest  Level FlightAware Approximate
01:53PM 16.8061 118.4814 324° Northwest  Level FlightAware Approximate
01:54PM 16.9093 118.4023 324° Northwest  Level FlightAware Approximate
01:55PM 17.0126 118.3231 324° Northwest  Level FlightAware Approximate
01:56PM 17.1158 118.2438 324° Northwest  Level FlightAware Approximate
01:57PM 17.2190 118.1644 324° Northwest  Level FlightAware Approximate
01:58PM 17.3221 118.0849 324° Northwest  Level FlightAware Approximate
01:59PM 17.4253 118.0053 324° Northwest  Level FlightAware Approximate
02:00PM 17.5284 117.9256 324° Northwest  Level FlightAware Approximate
02:01PM 17.6314 117.8458 324° Northwest  Level FlightAware Approximate
02:02PM 17.7344 117.7660 324° Northwest  Level FlightAware Approximate
02:03PM 17.8375 117.6861 324° Northwest  Level FlightAware Approximate
02:04PM 17.9404 117.6060 324° Northwest  Level FlightAware Approximate
02:05PM 18.0433 117.5259 323° Northwest  Level FlightAware Approximate
02:06PM 18.1462 117.4457 323° Northwest  Level FlightAware Approximate
02:07PM 18.2491 117.3653 323° Northwest  Level FlightAware Approximate
02:08PM 18.3519 117.2849 323° Northwest  Level FlightAware Approximate
02:09PM 18.4547 117.2044 323° Northwest  Level FlightAware Approximate
02:10PM 18.5575 117.1238 323° Northwest  Level FlightAware Approximate
02:11PM 18.6602 117.0431 323° Northwest  Level FlightAware Approximate
02:12PM 18.7629 116.9623 323° Northwest  Level FlightAware Approximate
02:13PM 18.8656 116.8814 323° Northwest  Level FlightAware Approximate
02:14PM 18.9682 116.8004 323° Northwest  Level FlightAware Approximate
02:15PM 19.0708 116.7193 323° Northwest  Level FlightAware Approximate
02:16PM 19.1733 116.6381 323° Northwest  Level FlightAware Approximate
02:17PM 19.2759 116.5568 323° Northwest  Level FlightAware Approximate
02:18PM 19.3783 116.4754 323° Northwest  Level FlightAware Approximate
02:19PM 19.4808 116.3939 323° Northwest  Level FlightAware Approximate
02:20PM 19.5832 116.3123 323° Northwest  Level FlightAware Approximate
02:21PM 19.6856 116.2306 323° Northwest  Level FlightAware Approximate
02:21PM 21.0510 114.1730 323° Northwest 417 480 18,400  Level FlightAware
02:22PM 19.7879 116.1488 323° Northwest  Level FlightAware Approximate
02:22PM 21.0640 114.0640 277° West 421 484 17,800  Level FlightAware
02:23PM 21.0700 113.9970 275° West 418 481 17,400 -480 Descending FlightAware
02:23PM 21.0770 113.8930 274° West 416 479 17,100 -480 Descending FlightAware
02:24PM 21.0840 113.8100 275° West 413 475 16,800 -240 Descending FlightAware
02:25PM 21.0880 113.7400 274° West 413 475 16,800  Level FlightAware
02:25PM 21.0930 113.6710 274° West 413 475 16,800  Level FlightAware
02:26PM 21.0970 113.6010 274° West 413 475 16,800  Level FlightAware
02:27PM 21.1020 113.5320 274° West 413 475 16,800 -600 Level FlightAware
02:29PM 21.3504 113.5769 10° North  Level Estimated
02:30PM 21.4767 113.5998 10° North  Level Estimated
02:31PM 21.6030 113.6227 10° North  Level Estimated
02:32PM 21.7292 113.6457 10° North  Level Estimated
02:33PM 21.8555 113.6687 10° North  Level Estimated
02:34PM 21.9818 113.6917 10° North  Level Estimated
02:35PM 22.1081 113.7148 10° North  Level Estimated
02:36PM 22.2343 113.7379 10° North  Level Estimated
02:37PM 22.3606 113.7611 10° North  Level Estimated
02:38PM 22.4869 113.7843 10° North  Level Estimated
02:39PM 22.6131 113.8076 10° North  Level Estimated
02:40PM 22.6395 113.8124 10° North  Level Estimated
02:41PM 22.6395 113.8124 25° Northeast  Level Estimated
02:41PM 22.3500 113.3940 25° Northeast 300 345 8,800  Level FlightAware
02:41PM 22.3780 113.4040 18° North 299 344 8,500 -900 Descending FlightAware
02:41PM 22.4230 113.4210 19° North 297 342 8,000 -1,020 Descending FlightAware
02:42PM 22.4530 113.4420 33° Northeast 292 336 7,500 -1,200 Descending FlightAware
02:42PM 22.4870 113.4650 32° Northeast 290 334 6,900 -1,140 Descending FlightAware
02:43PM 22.5150 113.4840 32° Northeast 287 330 6,500 -900 Descending FlightAware
02:43PM 22.5470 113.5060 32° Northeast 271 312 6,100 -720 Descending FlightAware
02:44PM 22.5780 113.5270 32° Northeast 251 289 5,800 -900 Descending FlightAware
02:44PM 22.6040 113.5430 30° Northeast 239 275 5,300 -1,440 Descending FlightAware
02:45PM 22.6320 113.5620 32° Northeast 234 269 4,500 -1,440 Descending FlightAware
02:45PM 22.6540 113.5760 30° Northeast 229 264 4,000 -1,440 Descending FlightAware
02:46PM 22.6820 113.5930 29° Northeast 227 261 3,200 -1,020 Descending FlightAware
02:46PM 22.7090 113.6110 32° Northeast 226 260 3,000 -240 Descending FlightAware
02:47PM 22.7320 113.6270 33° Northeast 222 255 3,000  Level FlightAware
02:47PM 22.7440 113.6340 28° Northeast 205 236 3,000  Level FlightAware
02:47PM 22.7680 113.6500 32° Northeast 201 231 3,000  Level FlightAware
02:48PM 22.7880 113.6630 31° Northeast 201 231 3,000  Level FlightAware
02:48PM 22.7960 113.6740 52° Northeast 176 203 3,000  Level FlightAware
02:48PM 22.7960 113.6780 90° East 164 189 3,000  Level FlightAware
02:48PM 22.7910 113.6930 110° East 142 163 3,000 -360 Level FlightAware
02:49PM 22.7830 113.7120 115° Southeast 138 159 2,700 -540 Descending FlightAware
02:49PM 22.7770 113.7180 137° Southeast 132 152 2,600 -720 Descending FlightAware
02:50PM 22.7590 113.7270 155° Southeast 132 152 2,200 -660 Descending FlightAware
02:50PM 22.7450 113.7350 152° Southeast 136 157 2,000 -600 Descending FlightAware
02:51PM 22.7290 113.7440 153° Southeast 138 159 1,700 -780 Descending FlightAware
02:51PM 22.7140 113.7520 154° Southeast 141 162 1,300 -780 Descending FlightAware
02:51PM 22.6960 113.7620 153° Southeast 140 161 1,000 -720 Descending FlightAware
02:52PM 22.6870 113.7670 153° Southeast 142 163 800 -780 Descending FlightAware
02:52PM 22.6720 113.7750 154° Southeast 144 166 500 -780 Descending FlightAware
02:53PM 22.6540 113.7850 153° Southeast 145 167 100 -840 Descending FlightAware